Time;durP1;ratioP1;P1;durP2;ratioP2;P2;SDS_P1;SDS_P2;PMS_P1;PMS_P2;Temp;Humidity;BMP_temperature;BMP_pressure;BME280_temperature;BME280_humidity;BME280_pressure;Samples;Min_cycle;Max_cycle;Signal;HPM_P1;HPM_P2
2023/03/09 00:01:19;;;;;;;13.13;8.45;;;;;;;;;;4769769;30;20056;-88
2023/03/09 00:03:45;;;;;;;15.95;8.07;;;;;;;;;;4769579;30;20059;-92
2023/03/09 00:06:11;;;;;;;11.05;7.82;;;;;;;;;;4754788;30;20509;-91
2023/03/09 00:08:37;;;;;;;14.10;7.45;;;;;;;;;;4755194;30;20142;-92
2023/03/09 00:11:06;;;;;;;14.52;7.72;;;;;;;;;;4739994;30;20148;-88
2023/03/09 00:13:32;;;;;;;12.73;7.28;;;;;;;;;;4754998;30;20056;-89
2023/03/09 00:16:07;;;;;;;14.95;7.70;;;;;;;;;;4753941;30;20052;-87
2023/03/09 00:18:33;;;;;;;13.27;8.50;;;;;;;;;;4754786;30;20062;-90
2023/03/09 00:20:59;;;;;;;12.52;7.72;;;;;;;;;;4754581;30;20541;-88
2023/03/09 00:23:25;;;;;;;13.98;8.05;;;;;;;;;;4755151;30;20070;-88
2023/03/09 00:25:51;;;;;;;13.15;7.38;;;;;;;;;;4726294;30;20059;-88
2023/03/09 00:28:17;;;;;;;12.95;7.70;;;;;;;;;;4725991;30;20124;-88
2023/03/09 00:30:43;;;;;;;11.90;7.38;;;;;;;;;;4769617;30;20052;-88
2023/03/09 00:33:09;;;;;;;16.73;7.50;;;;;;;;;;4725420;30;20098;-88
2023/03/09 00:35:36;;;;;;;13.00;7.70;;;;;;;;;;4739944;30;20121;-88
2023/03/09 00:38:02;;;;;;;15.10;8.25;;;;;;;;;;4754377;30;20056;-89
2023/03/09 00:40:28;;;;;;;15.00;7.93;;;;;;;;;;4725422;30;20109;-88
2023/03/09 00:42:54;;;;;;;11.23;7.25;;;;;;;;;;4754381;30;20060;-89
2023/03/09 00:45:22;;;;;;;13.77;8.52;;;;;;;;;;4725202;30;20099;-89
2023/03/09 00:47:49;;;;;;;15.63;8.13;;;;;;;;;;4754400;30;20058;-87
2023/03/09 00:50:15;;;;;;;12.48;8.70;;;;;;;;;;4769422;30;20197;-88
2023/03/09 00:52:41;;;;;;;15.35;8.27;;;;;;;;;;4755198;30;20060;-92
2023/03/09 00:55:07;;;;;;;9.90;7.18;;;;;;;;;;4754927;30;20059;-91
2023/03/09 00:57:34;;;;;;;12.95;7.55;;;;;;;;;;4754874;30;20529;-92
2023/03/09 01:00:00;;;;;;;16.17;8.75;;;;;;;;;;4725765;30;20055;-92
2023/03/09 01:02:26;;;;;;;15.07;9.55;;;;;;;;;;4754919;30;20056;-94
2023/03/09 01:04:52;;;;;;;13.90;9.02;;;;;;;;;;4754660;30;20090;-91
2023/03/09 01:07:19;;;;;;;14.07;8.30;;;;;;;;;;4754892;30;20064;-94
2023/03/09 01:09:45;;;;;;;17.65;9.38;;;;;;;;;;4755026;30;20052;-96
2023/03/09 01:12:11;;;;;;;16.55;8.98;;;;;;;;;;4754964;30;20062;-95
2023/03/09 01:14:37;;;;;;;15.13;8.90;;;;;;;;;;4754803;30;20095;-96
2023/03/09 01:17:03;;;;;;;15.90;8.95;;;;;;;;;;4726069;30;20056;-93
2023/03/09 01:19:30;;;;;;;12.77;7.55;;;;;;;;;;4754851;30;20078;-94
2023/03/09 01:21:56;;;;;;;20.80;10.30;;;;;;;;;;4725956;30;20120;-92
2023/03/09 01:24:23;;;;;;;15.30;9.27;;;;;;;;;;4754560;30;20517;-92
2023/03/09 01:26:49;;;;;;;21.02;10.85;;;;;;;;;;4755410;30;20048;-90
2023/03/09 01:29:15;;;;;;;20.45;11.65;;;;;;;;;;4757561;30;20056;-89
2023/03/09 01:31:41;;;;;;;16.80;9.82;;;;;;;;;;4758006;30;20201;-91
2023/03/09 01:34:07;;;;;;;13.48;9.57;;;;;;;;;;4728758;30;20839;-91
2023/03/09 01:36:33;;;;;;;16.23;9.52;;;;;;;;;;4728980;30;20051;-93
2023/03/09 01:38:59;;;;;;;15.23;9.32;;;;;;;;;;4758736;30;20070;-90
2023/03/09 01:41:25;;;;;;;14.27;8.40;;;;;;;;;;4772682;30;20417;-90
2023/03/09 01:43:52;;;;;;;16.08;9.40;;;;;;;;;;4728877;30;20063;-90
2023/03/09 01:46:24;;;;;;;16.92;8.65;;;;;;;;;;4758750;30;20063;-88
2023/03/09 01:48:59;;;;;;;14.32;9.32;;;;;;;;;;4759503;30;20067;-89
2023/03/09 01:51:28;;;;;;;15.77;9.80;;;;;;;;;;4758800;30;20098;-89
2023/03/09 01:53:54;;;;;;;17.23;10.27;;;;;;;;;;4760142;30;20099;-93
2023/03/09 01:56:21;;;;;;;16.75;9.52;;;;;;;;;;4728316;30;20502;-89
2023/03/09 01:58:48;;;;;;;15.35;8.70;;;;;;;;;;4743106;30;20127;-95
2023/03/09 02:01:14;;;;;;;15.32;10.32;;;;;;;;;;4757782;30;20051;-93
2023/03/09 02:03:43;;;;;;;17.92;9.93;;;;;;;;;;4728768;30;20090;-95
2023/03/09 02:06:14;;;;;;;18.00;10.23;;;;;;;;;;4772532;30;20066;-94
2023/03/09 02:08:45;;;;;;;21.05;9.75;;;;;;;;;;4757987;30;20422;-95
2023/03/09 02:11:13;;;;;;;15.60;9.32;;;;;;;;;;4757576;30;20059;-95
2023/03/09 02:13:41;;;;;;;16.27;9.75;;;;;;;;;;4757840;30;20063;-95
2023/03/09 02:16:07;;;;;;;19.50;11.45;;;;;;;;;;4758027;30;20102;-93
2023/03/09 02:18:33;;;;;;;17.83;10.52;;;;;;;;;;4772832;30;20059;-94
2023/03/09 02:20:59;;;;;;;16.88;9.10;;;;;;;;;;4757575;30;20058;-96
2023/03/09 02:23:25;;;;;;;17.50;10.23;;;;;;;;;;4762316;30;20056;-96
2023/03/09 02:25:57;;;;;;;20.05;9.88;;;;;;;;;;4763651;30;20094;-94
2023/03/09 02:28:23;;;;;;;18.85;10.18;;;;;;;;;;4763977;30;20072;-95
2023/03/09 02:30:49;;;;;;;17.50;9.43;;;;;;;;;;4764798;30;20056;-93
2023/03/09 02:33:25;;;;;;;18.08;10.65;;;;;;;;;;4728989;30;20123;-95
2023/03/09 02:35:55;;;;;;;14.32;9.07;;;;;;;;;;4764314;24;20051;-95
2023/03/09 02:38:22;;;;;;;20.13;10.40;;;;;;;;;;4742166;30;20123;-95
2023/03/09 02:40:49;;;;;;;19.50;11.27;;;;;;;;;;4743894;30;20059;-94
2023/03/09 02:43:17;;;;;;;15.98;9.77;;;;;;;;;;4742531;30;20048;-94
2023/03/09 02:45:43;;;;;;;18.83;10.55;;;;;;;;;;4742906;30;20063;-93
2023/03/09 02:48:09;;;;;;;16.30;9.48;;;;;;;;;;4742693;30;20055;-95
2023/03/09 02:50:35;;;;;;;21.25;11.27;;;;;;;;;;4742690;30;20063;-93
2023/03/09 03:21:05;;;;;;;;;;;;;;;;;;;;;
2023/03/09 03:30:15;;;;;;;23.33;12.38;;;;;;;;;;4726609;30;20068;-95
2023/03/09 03:32:45;;;;;;;23.33;11.90;;;;;;;;;;4739553;30;20058;-96
2023/03/09 03:35:11;;;;;;;25.50;13.18;;;;;;;;;;4728551;30;20060;-96
2023/03/09 03:37:38;;;;;;;23.92;13.23;;;;;;;;;;4726707;30;20052;-96
2023/03/09 03:40:08;;;;;;;22.40;11.77;;;;;;;;;;4723755;30;20120;-95
2023/03/09 03:42:43;;;;;;;24.65;12.77;;;;;;;;;;4724878;30;20052;-96
2023/03/09 03:45:20;;;;;;;26.45;13.27;;;;;;;;;;4724256;30;20143;-96
2023/03/09 03:47:52;;;;;;;23.20;12.52;;;;;;;;;;4724312;30;20052;-96
2023/03/09 03:50:21;;;;;;;25.58;12.85;;;;;;;;;;4724192;30;20060;-96
2023/03/09 03:52:50;;;;;;;24.67;12.43;;;;;;;;;;4725483;30;20094;-96
2023/03/09 03:55:27;;;;;;;24.30;13.32;;;;;;;;;;4726123;30;20056;-96
2023/03/09 03:57:54;;;;;;;22.20;13.00;;;;;;;;;;4725165;30;20048;-96
2023/03/09 04:00:29;;;;;;;24.05;13.00;;;;;;;;;;4740374;30;20104;-96
2023/03/09 04:02:58;;;;;;;23.05;12.65;;;;;;;;;;4761822;30;20134;-94
2023/03/09 04:05:26;;;;;;;23.50;12.38;;;;;;;;;;4745599;30;20095;-96
2023/03/09 04:07:55;;;;;;;24.67;12.40;;;;;;;;;;4748831;30;20059;-94
2023/03/09 04:10:23;;;;;;;28.10;14.38;;;;;;;;;;4733385;30;20221;-94
2023/03/09 04:12:49;;;;;;;25.55;13.23;;;;;;;;;;4731012;30;20062;-93
2023/03/09 04:15:16;;;;;;;27.13;13.63;;;;;;;;;;4720424;30;20128;-90
2023/03/09 04:17:42;;;;;;;22.65;12.43;;;;;;;;;;4704963;30;20052;-90
2023/03/09 04:20:09;;;;;;;24.27;13.20;;;;;;;;;;4704924;30;20064;-91
2023/03/09 04:22:35;;;;;;;26.88;12.93;;;;;;;;;;4705822;30;20600;-91
2023/03/09 04:25:01;;;;;;;24.63;11.93;;;;;;;;;;4705311;30;20103;-93
2023/03/09 04:27:27;;;;;;;24.70;14.18;;;;;;;;;;4719922;30;20056;-92
2023/03/09 04:29:53;;;;;;;22.95;13.23;;;;;;;;;;4720587;30;20471;-94
2023/03/09 04:32:19;;;;;;;24.27;14.68;;;;;;;;;;4706227;30;20135;-91
2023/03/09 04:34:45;;;;;;;25.58;13.70;;;;;;;;;;4709196;30;20103;-89
2023/03/09 04:37:12;;;;;;;29.10;14.57;;;;;;;;;;4722422;30;20067;-90
2023/03/09 04:39:38;;;;;;;32.28;14.73;;;;;;;;;;4720281;30;20057;-90
2023/03/09 04:42:04;;;;;;;28.33;14.75;;;;;;;;;;4705478;30;20056;-91
2023/03/09 04:44:30;;;;;;;23.77;14.07;;;;;;;;;;4719758;30;20119;-90
2023/03/09 04:46:56;;;;;;;24.50;13.75;;;;;;;;;;4719047;30;20056;-90
2023/03/09 04:49:23;;;;;;;23.85;13.70;;;;;;;;;;4704882;30;20147;-90
2023/03/09 04:51:51;;;;;;;31.05;14.18;;;;;;;;;;4705099;30;20060;-90
2023/03/09 04:54:18;;;;;;;26.13;13.02;;;;;;;;;;4719295;30;20063;-93
2023/03/09 04:56:47;;;;;;;26.10;14.32;;;;;;;;;;4719762;30;20055;-92
2023/03/09 04:59:13;;;;;;;26.40;13.60;;;;;;;;;;4705664;30;20064;-91
2023/03/09 05:01:39;;;;;;;25.17;12.63;;;;;;;;;;4705967;30;20056;-92
2023/03/09 05:04:05;;;;;;;25.27;13.52;;;;;;;;;;4723049;30;20060;-91
2023/03/09 05:06:31;;;;;;;23.38;13.55;;;;;;;;;;4708715;30;20136;-91
2023/03/09 05:08:58;;;;;;;25.02;12.52;;;;;;;;;;4708270;30;20057;-90
2023/03/09 05:11:24;;;;;;;25.17;14.18;;;;;;;;;;4714074;30;20094;-91
2023/03/09 05:13:50;;;;;;;28.27;14.65;;;;;;;;;;4725802;30;20060;-91
2023/03/09 05:16:16;;;;;;;27.95;13.75;;;;;;;;;;4740119;30;20052;-90
2023/03/09 05:18:42;;;;;;;24.33;12.95;;;;;;;;;;4740325;30;20067;-91
2023/03/09 05:21:08;;;;;;;22.00;12.25;;;;;;;;;;4725803;30;20052;-91
2023/03/09 05:23:36;;;;;;;26.58;13.30;;;;;;;;;;4726057;30;20165;-91
2023/03/09 05:26:06;;;;;;;20.67;11.73;;;;;;;;;;4740161;30;20052;-92
2023/03/09 05:28:32;;;;;;;26.15;13.82;;;;;;;;;;4726313;30;20056;-91
2023/03/09 05:30:58;;;;;;;26.02;13.85;;;;;;;;;;4725718;30;20093;-93
2023/03/09 05:33:25;;;;;;;23.00;13.77;;;;;;;;;;4740184;30;20059;-91
2023/03/09 05:35:51;;;;;;;26.65;13.57;;;;;;;;;;4725850;30;20541;-91
2023/03/09 05:38:17;;;;;;;26.40;13.13;;;;;;;;;;4739791;30;20060;-91
2023/03/09 05:40:43;;;;;;;24.90;13.30;;;;;;;;;;4725604;30;20547;-92
2023/03/09 05:43:10;;;;;;;24.45;15.05;;;;;;;;;;4740571;30;20499;-93
2023/03/09 05:45:36;;;;;;;29.27;13.63;;;;;;;;;;4775950;24;20113;-94
2023/03/09 05:48:06;;;;;;;29.70;12.15;;;;;;;;;;4752507;24;20385;31
2023/03/09 05:50:35;;;;;;;24.98;12.77;;;;;;;;;;4727137;30;20061;-95
2023/03/09 05:53:01;;;;;;;26.27;13.75;;;;;;;;;;4750857;24;20123;-94
2023/03/09 05:55:30;;;;;;;22.73;12.38;;;;;;;;;;4791925;24;21117;-93
2023/03/09 05:57:57;;;;;;;26.08;14.35;;;;;;;;;;4758462;24;20499;-93
2023/03/09 06:06:54;;;;;;;26.73;13.65;;;;;;;;;;5007285;24;20406;-93
2023/03/09 08:57:44;;;;;;;;;;;;;;;;;;;;;
2023/03/09 09:04:08;;;;;;;15.88;9.38;;;;;;;;;;4770988;30;20047;-92
2023/03/09 09:09:40;;;;;;;15.02;9.20;;;;;;;;;;4731172;30;20055;-92
2023/03/09 09:12:10;;;;;;;14.65;8.98;;;;;;;;;;4740694;30;20117;-92
2023/03/09 09:14:42;;;;;;;12.90;7.43;;;;;;;;;;4740482;30;20060;-92
2023/03/09 09:17:11;;;;;;;13.40;7.65;;;;;;;;;;4739915;30;20048;-91
2023/03/09 09:20:05;;;;;;;14.38;8.02;;;;;;;;;;4754909;30;20409;-91
2023/03/09 09:22:31;;;;;;;14.93;7.22;;;;;;;;;;4727580;30;20106;-93
2023/03/09 09:25:11;;;;;;;12.45;7.68;;;;;;;;;;4755658;30;20415;-91
2023/03/09 09:27:40;;;;;;;11.85;7.72;;;;;;;;;;4754220;30;20055;-91
2023/03/09 09:33:34;;;;;;;12.18;7.13;;;;;;;;;;4733243;30;20170;-90
2023/03/09 09:36:02;;;;;;;10.68;7.10;;;;;;;;;;4733384;30;20566;-91
2023/03/09 09:39:02;;;;;;;17.13;7.28;;;;;;;;;;4733758;30;20080;-92
2023/03/09 09:41:46;;;;;;;11.52;7.07;;;;;;;;;;4731929;30;20110;-92
2023/03/09 09:44:37;;;;;;;;;;;;;;;;;;;;;
2023/03/09 09:51:15;;;;;;;10.52;7.15;;;;;;;;;;4717056;30;20117;-91
2023/03/09 09:53:47;;;;;;;13.75;7.75;;;;;;;;;;4736882;30;20078;-90
2023/03/09 09:56:19;;;;;;;9.52;6.85;;;;;;;;;;4736333;30;20130;-92
2023/03/09 10:02:58;;;;;;;12.18;7.60;;;;;;;;;;4773385;30;20071;-91
2023/03/09 10:09:07;;;;;;;14.25;7.75;;;;;;;;;;4776024;30;20050;-91
2023/03/09 10:11:47;;;;;;;9.95;6.80;;;;;;;;;;4757239;30;20059;-91
2023/03/09 10:14:38;;;;;;;9.98;7.05;;;;;;;;;;4757439;30;20091;-92
2023/03/09 10:17:07;;;;;;;11.05;7.47;;;;;;;;;;4761957;30;20055;-90
2023/03/09 10:19:44;;;;;;;7.70;6.13;;;;;;;;;;4757184;30;20476;-91
2023/03/09 10:22:16;;;;;;;9.35;6.47;;;;;;;;;;4772724;30;20052;-92
2023/03/09 10:24:50;;;;;;;10.30;7.03;;;;;;;;;;4757767;30;20059;-93
2023/03/09 10:27:22;;;;;;;11.13;7.40;;;;;;;;;;4758074;30;20051;-92
2023/03/09 10:34:08;;;;;;;9.55;6.07;;;4.30;99.90;;;;;;4773810;30;20403;-92
2023/03/09 10:36:36;;;;;;;;;;;4.40;99.90;;;;;;4742646;30;20059;-90
2023/03/09 10:39:08;;;;;;;10.70;6.30;;;;;;;;;;4744888;30;19926;-88
2023/03/09 10:41:36;;;;;;;9.77;5.68;;;;;;;;;;4767007;30;20743;-88
2023/03/09 10:44:03;;;;;;;9.05;6.72;;;;;;;;;;4766819;30;20056;-89
2023/03/09 10:46:30;;;;;;;7.72;5.70;;;;;;;;;;4770502;30;20123;-88
2023/03/09 10:49:16;;;;;;;10.45;5.88;;;;;;;;;;4770600;30;20056;-89
2023/03/09 10:51:54;;;;;;;9.77;5.70;;;;;;;;;;4762293;24;20063;-88
2023/03/09 10:54:23;;;;;;;7.85;5.45;;;;;;;;;;4752137;30;20064;-87
2023/03/09 10:56:49;;;;;;;8.60;6.32;;;;;;;;;;4744378;30;20052;-92
2023/03/09 10:59:17;;;;;;;7.97;4.40;;;;;;;;;;4738669;30;20060;-92
2023/03/09 11:01:45;;;;;;;8.13;5.35;;;;;;;;;;4753711;30;20062;-91
2023/03/09 11:04:23;;;;;;;6.40;5.32;;;;;;;;;;4739753;30;20137;-93
2023/03/09 11:06:52;;;;;;;8.45;5.57;;;;;;;;;;4739641;30;20139;-93
2023/03/09 11:10:04;;;;;;;7.20;4.53;;;;;;;;;;4738457;30;20415;-91
2023/03/09 11:12:36;;;;;;;5.95;4.80;;;;;;;;;;4738948;30;20064;-92
2023/03/09 11:15:04;;;;;;;7.30;4.88;;;;;;;;;;4739173;30;20099;-92
2023/03/09 11:17:39;;;;;;;5.60;4.22;;;;;;;;;;4739408;30;20129;-93
2023/03/09 11:20:39;;;;;;;6.15;5.20;;;4.90;99.90;;;;;;4738951;30;20074;-92
2023/03/09 11:23:27;;;;;;;6.70;4.53;;;;;;;;;;4724436;30;20060;-91
2023/03/09 11:26:23;;;;;;;6.32;4.97;;;5.00;99.90;;;;;;4748120;30;20143;-91
2023/03/09 11:29:11;;;;;;;10.25;5.22;;;;;;;;;;4724604;30;20071;-91
2023/03/09 11:31:42;;;;;;;8.30;4.60;;;;;;;;;;4740472;30;20536;-90
2023/03/09 11:34:14;;;;;;;8.20;5.45;;;;;;;;;;4740614;30;20145;-91
2023/03/09 11:37:11;;;;;;;7.15;5.22;;;;;;;;;;4739044;30;20371;-90
2023/03/09 11:39:52;;;;;;;;;;;4.90;99.90;;;;;;4722166;30;20538;-92
2023/03/09 11:42:45;;;;;;;6.35;4.03;;;;;;;;;;4724333;30;20372;-91
2023/03/09 11:45:41;;;;;;;6.88;4.78;;;;;;;;;;4738632;30;20052;-91
2023/03/09 11:48:28;;;;;;;6.18;4.25;;;;;;;;;;4723979;30;20117;-91
2023/03/09 11:51:04;;;;;;;7.43;4.35;;;;;;;;;;4749860;24;20052;-93
2023/03/09 11:53:32;;;;;;;7.35;4.47;;;;;;;;;;4745118;24;20056;-91
2023/03/09 11:56:02;;;;;;;5.88;4.70;;;;;;;;;;4723934;30;20108;-94
2023/03/09 11:58:30;;;;;;;7.30;4.50;;;;;;;;;;4723779;30;20574;-90
2023/03/09 12:01:05;;;;;;;5.07;4.30;;;;;;;;;;4724164;30;20059;-92
2023/03/09 12:03:34;;;;;;;9.38;4.70;;;;;;;;;;4724587;30;20453;-93
2023/03/09 12:06:03;;;;;;;9.40;5.18;;;;;;;;;;4724473;30;20220;-92
2023/03/09 12:08:46;;;;;;;5.88;4.32;;;;;;;;;;4724360;30;20052;-92
2023/03/09 12:11:47;;;;;;;10.05;4.93;;;;;;;;;;4740077;30;20423;-90
2023/03/09 12:14:57;;;;;;;6.18;4.70;;;;;;;;;;4725430;30;20126;-91
2023/03/09 12:17:33;;;;;;;12.35;5.10;;;;;;;;;;4753099;30;20102;-91
2023/03/09 12:20:02;;;;;;;5.38;4.30;;;;;;;;;;4752871;30;20064;-92
2023/03/09 12:22:31;;;;;;;6.22;4.25;;;;;;;;;;4752495;30;20063;-90
2023/03/09 12:25:15;;;;;;;6.38;4.70;;;;;;;;;;4752353;30;20044;-91
2023/03/09 12:27:58;;;;;;;7.05;4.35;;;;;;;;;;4752274;30;20568;-91
2023/03/09 12:30:51;;;;;;;6.00;4.70;;;;;;;;;;4752698;30;20056;-92
2023/03/09 12:33:40;;;;;;;7.57;4.47;;;;;;;;;;4751907;30;20052;-89
2023/03/09 12:36:29;;;;;;;9.05;4.43;;;;;;;;;;4751678;30;20064;-91
2023/03/09 12:45:41;;;;;;;7.60;5.00;;;;;;;;;;4698712;30;20479;-92
2023/03/09 12:55:14;;;;;;;6.28;4.47;;;;;;;;;;4770976;30;20125;-92
2023/03/09 12:57:52;;;;;;;7.68;4.57;;;;;;;;;;4773583;30;20105;-92
2023/03/09 13:00:31;;;;;;;7.40;5.45;;;;;;;;;;4765256;30;20059;-91
2023/03/09 13:03:00;;;;;;;5.70;4.47;;;;;;;;;;4758045;30;20055;-92
2023/03/09 13:05:31;;;;;;;7.32;5.18;;;;;;;;;;4755557;30;20465;-91
2023/03/09 13:08:05;;;;;;;6.97;5.03;;;;;;;;;;4755439;30;20056;-91
2023/03/09 13:10:33;;;;;;;6.47;4.72;;;;;;;;;;4756096;30;20070;-91
2023/03/09 13:13:18;;;;;;;10.48;4.50;;;;;;;;;;4755642;30;20083;-93
2023/03/09 13:15:44;;;;;;;6.32;5.10;;;;;;;;;;4755229;30;20056;-92
2023/03/09 13:18:22;;;;;;;5.63;4.22;;;;;;;;;;4755487;30;20075;-94
2023/03/09 13:20:48;;;;;;;7.35;4.40;;;;;;;;;;4755384;30;20146;-91
2023/03/09 13:23:19;;;;;;;15.65;5.18;;;;;;;;;;4757265;30;20117;-94
2023/03/09 13:25:50;;;;;;;4.75;4.10;;;;;;;;;;4758580;30;20055;-92
2023/03/09 13:28:21;;;;;;;5.80;4.32;;;;;;;;;;4758723;30;20502;-91
2023/03/09 13:30:48;;;;;;;6.10;4.07;;;;;;;;;;4759120;30;20064;-93
2023/03/09 13:33:26;;;;;;;6.47;4.90;;;;;;;;;;4744441;30;20126;-91
2023/03/09 13:35:57;;;;;;;6.38;4.95;;;;;;;;;;4758949;30;20056;-91
2023/03/09 13:38:34;;;;;;;5.93;4.82;;;;;;;;;;4758602;30;20150;-93
2023/03/09 13:41:02;;;;;;;8.38;4.88;;;;;;;;;;4759055;30;20113;-92
2023/03/09 13:43:33;;;;;;;7.40;4.97;;;;;;;;;;4758525;30;20160;-92
2023/03/09 13:46:07;;;;;;;6.82;4.88;;;;;;;;;;4757867;30;20059;-89
2023/03/09 13:48:35;;;;;;;;;;;5.30;99.90;;;;;;4758525;30;20086;-93
2023/03/09 13:51:01;;;;;;;6.47;4.70;;;;;;;;;;4758411;30;19979;-91
2023/03/09 13:53:27;;;;;;;6.72;5.40;;;;;;;;;;4758640;30;20167;-90
2023/03/09 13:55:54;;;;;;;5.22;4.18;;;;;;;;;;4758165;30;20079;-93
2023/03/09 13:58:27;;;;;;;7.80;4.85;;;;;;;;;;4757801;30;20048;-92
2023/03/09 14:00:54;;;;;;;7.15;4.82;;;;;;;;;;4744466;30;20148;-93
2023/03/09 14:03:21;;;;;;;6.10;4.57;;;;;;;;;;4764133;24;20422;-94
2023/03/09 14:05:59;;;;;;;6.85;5.07;;;;;;;;;;4758184;30;20064;-93
2023/03/09 14:08:25;;;;;;;8.43;5.57;;;;;;;;;;4743428;30;20059;-92
2023/03/09 14:10:52;;;;;;;6.95;5.20;;;;;;;;;;4758633;30;20058;-92
2023/03/09 14:13:23;;;;;;;6.60;5.55;;;;;;;;;;4765326;24;20075;-91
2023/03/09 14:16:06;;;;;;;9.25;4.88;;;;;;;;;;4743527;30;20079;-94
2023/03/09 14:18:38;;;;;;;7.00;5.38;;;;;;;;;;4758588;30;20063;-93
2023/03/09 14:21:34;;;;;;;;;;;;;;;;;;;;;
2023/03/09 14:24:33;;;;;;;9.68;6.05;;;;;;;;;;4740789;30;20060;-92
2023/03/09 14:37:23;;;;;;;8.25;6.82;;;;;;;;;;4753022;30;20095;-93
2023/03/09 14:40:32;;;;;;;8.65;6.28;;;;;;;;;;4739661;30;20174;-90
2023/03/09 14:43:48;;;;;;;;;;;;;;;;;;;;;
2023/03/09 14:56:55;;;;;;;9.65;7.15;;;;;;;;;;4764598;24;20559;-92
2023/03/09 14:59:25;;;;;;;10.90;7.40;;;;;;;;;;4761990;24;20083;-92
2023/03/09 15:08:31;;;;;;;;;;;;;;;;;;;;;
2023/03/09 15:14:18;;;;;;;11.43;7.78;;;;;;;;;;4770729;29;20074;-91
2023/03/09 15:16:53;;;;;;;10.68;7.82;;;;;;;;;;4743334;30;20146;-91
2023/03/09 15:24:04;;;;;;;11.32;7.70;;;;;;;;;;4772383;30;20054;-92
2023/03/09 15:26:44;;;;;;;11.57;8.43;;;;;;;;;;4753602;30;20536;-91
2023/03/09 15:29:15;;;;;;;13.13;9.25;;;;;;;;;;4756042;30;20067;-91
2023/03/09 15:31:44;;;;;;;11.10;8.52;;;;;;;;;;4781821;24;20410;-91
2023/03/09 15:38:14;;;;;;;13.02;8.43;;;;;;;;;;4772559;30;20471;-91
2023/03/09 15:44:03;;;;;;;14.45;8.57;;;;;;;;;;4773520;30;20131;-92
2023/03/09 15:46:45;;;;;;;13.13;9.27;;;;;;;;;;4744702;30;20140;-91
2023/03/09 16:08:25;;;;;;;20.70;12.10;;;;;;;;;;4758051;30;20059;-91
2023/03/09 16:11:00;;;;;;;15.90;11.25;;;;;;;;;;4755776;30;20080;-91
2023/03/09 16:17:13;;;;;;;13.50;9.77;;;;;;;;;;4754127;30;20109;-91
2023/03/09 16:20:00;;;;;;;16.77;10.23;;;;;;;;;;4738425;30;20056;-92
2023/03/09 16:40:07;;;;;;;20.70;14.05;;;;;;;;;;4775751;24;20140;-92
2023/03/09 16:55:51;;;;;;;20.20;13.30;;;;;;;;;;5357355;24;20075;-92
2023/03/09 18:06:19;;;;;;;21.45;13.50;;;;;;;;;;4927966;24;20506;-91
2023/03/09 18:19:50;;;;;;;24.45;15.00;;;;;;;;;;4756451;30;20611;-91
2023/03/09 18:26:24;;;;;;;25.98;13.85;;;;;;;;;;4756861;30;20062;-91
2023/03/09 18:32:49;;;;;;;23.35;14.00;;;;;;;;;;4757841;30;20051;-91
2023/03/09 18:35:42;;;;;;;;;;;;;;;;;;;;;
2023/03/09 18:45:04;;;;;;;24.27;13.57;;;;;;;;;;4754336;30;20548;-91
2023/03/09 18:47:33;;;;;;;25.05;13.52;;;;;;;;;;4738000;30;20177;-90
2023/03/09 18:50:02;;;;;;;23.25;13.98;;;;;;;;;;4737891;30;20160;-90
2023/03/09 18:52:28;;;;;;;23.30;13.38;;;;;;;;;;4709873;30;20091;-90
2023/03/09 18:54:54;;;;;;;24.60;15.05;;;;;;;;;;4738121;30;20048;-89
2023/03/09 18:57:21;;;;;;;24.38;15.30;;;;;;;;;;4737548;30;20427;-90
2023/03/09 18:59:51;;;;;;;25.33;15.38;;;;;;;;;;4708317;30;20148;-90
2023/03/09 19:02:17;;;;;;;22.27;13.80;;;;;;;;;;4737720;30;20410;-90
2023/03/09 19:04:45;;;;;;;21.38;14.63;;;;;;;;;;4738085;30;20094;-90
2023/03/09 19:07:11;;;;;;;23.75;13.85;;;;;;;;;;4738497;30;20091;-90
2023/03/09 19:09:37;;;;;;;25.00;14.32;;;;;;;;;;4738778;30;20435;-90
2023/03/09 19:12:03;;;;;;;17.13;13.02;;;;;;;;;;4724395;30;20052;-90
2023/03/09 19:14:30;;;;;;;25.38;15.27;;;;;;;;;;4739015;30;20091;-89
2023/03/09 19:16:58;;;;;;;26.15;15.00;;;;;;;;;;4724258;30;20052;-90
2023/03/09 19:19:24;;;;;;;26.15;14.93;;;;;;;;;;4724330;30;20059;-91
2023/03/09 19:21:50;;;;;;;23.20;14.05;;;;;;;;;;4723570;30;20052;-91
2023/03/09 19:24:16;;;;;;;22.98;13.57;;;;;;;;;;4752954;30;20056;-87
2023/03/09 19:26:42;;;;;;;25.83;15.02;;;;;;;;;;4724068;30;20071;-90
2023/03/09 19:29:09;;;;;;;23.13;13.82;;;;;;;;;;4754473;30;20060;-89
2023/03/09 19:31:38;;;;;;;22.42;14.48;;;;;;;;;;4738331;30;20126;-90
2023/03/09 19:34:04;;;;;;;22.88;15.50;;;;;;;;;;4738455;30;20066;-90
2023/03/09 19:36:32;;;;;;;23.10;14.20;;;;;;;;;;4738301;30;20521;-91
2023/03/09 19:38:58;;;;;;;23.92;13.23;;;;;;;;;;4723615;30;20060;-91
2023/03/09 19:41:27;;;;;;;22.90;13.95;;;;;;;;;;4723908;30;20087;-91
2023/03/09 19:43:54;;;;;;;20.02;13.90;;;;;;;;;;4738343;30;20506;-91
2023/03/09 19:46:21;;;;;;;24.92;14.52;;;;;;;;;;4754022;30;20056;-91
2023/03/09 19:48:47;;;;;;;22.60;13.80;;;;;;;;;;4738329;30;20068;-90
2023/03/09 19:51:15;;;;;;;23.67;14.40;;;;;;;;;;4738746;30;20498;-89
2023/03/09 19:53:42;;;;;;;23.40;13.73;;;;;;;;;;4738148;30;20056;-90
2023/03/09 19:56:10;;;;;;;24.38;13.23;;;;;;;;;;4725796;30;20143;-87
2023/03/09 19:58:36;;;;;;;22.83;13.60;;;;;;;;;;4727605;30;20125;-90
2023/03/09 20:01:09;;;;;;;26.17;15.57;;;;;;;;;;4754528;30;20161;-90
2023/03/09 20:03:35;;;;;;;25.27;13.30;;;;;;;;;;4738360;30;20098;-90
2023/03/09 20:06:02;;;;;;;26.15;14.95;;;;;;;;;;4738168;30;20582;-91
2023/03/09 20:08:28;;;;;;;29.23;15.88;;;;;;;;;;4724939;30;20060;-92
2023/03/09 20:10:55;;;;;;;25.60;13.70;;;;;;;;;;4754756;30;20525;-91
2023/03/09 20:13:21;;;;;;;25.08;15.27;;;;;;;;;;4753558;30;20574;-90
2023/03/09 20:15:47;;;;;;;30.35;14.85;;;;;;;;;;4738859;30;20060;-92
2023/03/09 20:18:13;;;;;;;28.88;15.02;;;;;;;;;;4724996;30;20056;-91
2023/03/09 20:20:39;;;;;;;30.92;15.60;;;;;;;;;;4754086;30;20062;-89
2023/03/09 20:23:06;;;;;;;32.50;16.83;;;;;;;;;;4724743;30;20139;-90
2023/03/09 20:25:32;;;;;;;30.25;15.68;;;;;;;;;;4757361;24;20063;-92
2023/03/09 20:27:58;;;;;;;28.05;14.63;;;;;;;;;;4724905;30;20052;-92
2023/03/09 20:30:24;;;;;;;30.73;17.13;;;;;;;;;;4725444;30;20052;-91
2023/03/09 20:32:51;;;;;;;32.63;17.45;;;;;;;;;;4736646;24;20479;-91
2023/03/09 20:35:17;;;;;;;30.42;14.90;;;;;;;;;;4766245;24;20139;-91
2023/03/09 20:37:44;;;;;;;34.25;17.83;;;;;;;;;;4742303;30;20067;-92
